Time;durP1;ratioP1;P1;durP2;ratioP2;P2;SDS_P1;SDS_P2;PMS_P1;PMS_P2;Temp;Humidity;BMP_temperature;BMP_pressure;BME280_temperature;BME280_humidity;BME280_pressure;Samples;Min_cycle;Max_cycle;Signal;HPM_P1;HPM_P2
2022/11/18 00:01:46;;;;;;;5.75;5.07;;;6.00;99.90;;;;;;5017874;28;20051;-64
2022/11/18 00:04:11;;;;;;;7.10;6.40;;;6.20;99.90;;;;;;5018978;28;20036;-63
2022/11/18 00:06:37;;;;;;;5.03;4.40;;;6.00;99.90;;;;;;5014984;28;20602;-64
2022/11/18 00:09:03;;;;;;;5.50;4.93;;;6.10;99.90;;;;;;5034878;28;20049;-62
2022/11/18 00:14:19;;;;;;;8.15;7.32;;;6.30;99.90;;;;;;5011391;28;20072;-63
2022/11/18 00:16:51;;;;;;;5.90;4.78;;;6.30;99.90;;;;;;5033878;28;20297;-63
2022/11/18 00:19:18;;;;;;;5.05;4.53;;;6.20;99.90;;;;;;5028182;28;20467;-64
2022/11/18 00:21:44;;;;;;;9.82;7.63;;;6.30;99.90;;;;;;5032834;28;20045;-64
2022/11/18 00:24:10;;;;;;;6.60;5.32;;;6.10;99.90;;;;;;5017385;28;20045;-65
2022/11/18 00:26:36;;;;;;;6.30;5.15;;;6.30;99.90;;;;;;5035532;28;20579;-63
2022/11/18 00:29:02;;;;;;;6.05;4.90;;;6.00;99.90;;;;;;5020204;28;20382;-63
2022/11/18 00:31:27;;;;;;;6.78;5.97;;;6.10;99.90;;;;;;5036092;28;20049;-63
2022/11/18 00:33:53;;;;;;;6.32;5.68;;;6.10;99.90;;;;;;5038345;28;20045;-62
2022/11/18 00:36:19;;;;;;;6.22;3.45;;;6.20;99.90;;;;;;5009103;28;20084;-63
2022/11/18 00:38:45;;;;;;;5.40;2.85;;;6.30;99.90;;;;;;5035677;28;20394;-63
2022/11/18 00:41:13;;;;;;;5.50;3.17;;;6.10;99.90;;;;;;5036913;28;20060;-64
2022/11/18 00:43:39;;;;;;;9.50;8.05;;;6.20;99.90;;;;;;5038721;28;20485;-64
2022/11/18 00:46:08;;;;;;;10.13;7.63;;;5.90;99.90;;;;;;5038335;28;20057;-64
2022/11/18 00:48:34;;;;;;;6.65;5.63;;;6.20;99.90;;;;;;5036027;28;20041;-64
2022/11/18 00:51:12;;;;;;;3.65;2.75;;;6.20;99.90;;;;;;5037925;28;20037;-63
2022/11/18 00:53:38;;;;;;;8.48;5.90;;;5.90;99.90;;;;;;5035039;28;20064;-63
2022/11/18 00:56:03;;;;;;;11.13;9.13;;;5.90;99.90;;;;;;5040845;28;20056;-63
2022/11/18 00:58:29;;;;;;;11.57;8.75;;;6.10;99.90;;;;;;5058638;28;20051;-64
2022/11/18 01:00:55;;;;;;;7.72;6.18;;;6.20;99.90;;;;;;5039633;28;20402;-63
2022/11/18 01:03:21;;;;;;;8.95;6.40;;;6.00;99.90;;;;;;5037202;28;20333;-64
2022/11/18 01:05:47;;;;;;;11.25;8.60;;;5.90;99.90;;;;;;5039217;28;20476;-63
2022/11/18 01:08:12;;;;;;;6.32;5.18;;;6.10;99.90;;;;;;5036386;28;20037;-63
2022/11/18 01:10:39;;;;;;;8.55;6.05;;;6.00;99.90;;;;;;5036741;28;20394;-64
2022/11/18 01:13:18;;;;;;;4.38;3.22;;;5.80;99.90;;;;;;5057452;28;20032;-64
2022/11/18 01:15:49;;;;;;;5.60;3.97;;;5.80;99.90;;;;;;5037942;28;20635;-63
2022/11/18 01:18:16;;;;;;;7.47;5.72;;;6.00;99.90;;;;;;5055437;28;19924;-64
2022/11/18 01:20:42;;;;;;;8.40;6.25;;;6.10;99.90;;;;;;5056581;28;20123;-64
2022/11/18 01:23:08;;;;;;;5.03;3.10;;;5.90;99.90;;;;;;5038241;28;20462;-63
2022/11/18 01:25:36;;;;;;;4.10;3.10;;;5.80;99.90;;;;;;5035540;28;20037;-64
2022/11/18 01:28:02;;;;;;;11.63;4.57;;;6.10;99.90;;;;;;5037977;28;20044;-63
2022/11/18 01:30:27;;;;;;;7.35;5.22;;;6.00;99.90;;;;;;5039032;28;20043;-63
2022/11/18 01:32:53;;;;;;;10.55;9.05;;;6.00;99.90;;;;;;5037935;28;20036;-63
2022/11/18 01:35:19;;;;;;;7.32;5.20;;;5.80;99.90;;;;;;5056020;28;20032;-64
2022/11/18 01:37:45;;;;;;;5.93;4.60;;;5.90;99.90;;;;;;5021617;28;20457;-63
2022/11/18 01:40:11;;;;;;;8.38;6.18;;;5.80;99.90;;;;;;5053472;28;20036;-63
2022/11/18 01:42:37;;;;;;;5.28;4.30;;;6.00;99.90;;;;;;5036821;28;20569;-64
2022/11/18 01:45:25;;;;;;;8.48;7.03;;;6.00;99.90;;;;;;5038075;28;20040;-64
2022/11/18 01:47:59;;;;;;;13.45;10.35;;;5.90;99.90;;;;;;5037829;28;20044;-63
2022/11/18 01:50:26;;;;;;;8.38;5.70;;;5.80;99.90;;;;;;5054376;28;20428;-64
2022/11/18 01:52:57;;;;;;;10.35;7.10;;;5.90;99.90;;;;;;5055464;28;20036;-64
2022/11/18 01:55:26;;;;;;;10.82;6.18;;;5.70;99.90;;;;;;5054909;28;20040;-65
2022/11/18 01:58:01;;;;;;;7.65;4.70;;;6.10;99.90;;;;;;5033960;28;20053;-64
2022/11/18 02:00:26;;;;;;;8.00;6.40;;;6.00;99.90;;;;;;5036886;28;20055;-64
2022/11/18 02:02:53;;;;;;;11.23;7.53;;;6.00;99.90;;;;;;5055675;28;20659;-64
2022/11/18 02:05:20;;;;;;;6.07;4.70;;;5.70;99.90;;;;;;5053674;28;20044;-64
2022/11/18 02:07:46;;;;;;;18.60;9.98;;;5.70;99.90;;;;;;5036558;28;20135;-64
2022/11/18 02:10:21;;;;;;;12.35;8.23;;;5.80;99.90;;;;;;5019940;28;20455;-64
2022/11/18 02:12:49;;;;;;;12.80;8.52;;;5.70;99.90;;;;;;5050961;28;20037;-65
2022/11/18 02:15:16;;;;;;;12.27;6.68;;;5.80;99.90;;;;;;5055059;28;20043;-64
2022/11/18 02:18:11;;;;;;;10.80;7.00;;;6.00;99.90;;;;;;5055183;28;20055;-64
2022/11/18 02:20:41;;;;;;;15.18;8.75;;;6.00;99.90;;;;;;5052430;28;20253;-65
2022/11/18 02:23:37;;;;;;;20.23;13.25;;;6.00;99.90;;;;;;5052818;28;20041;-64
2022/11/18 02:26:20;;;;;;;11.05;6.63;;;5.70;99.90;;;;;;5036584;28;20040;-64
2022/11/18 02:29:05;;;;;;;11.27;7.38;;;6.00;99.90;;;;;;5050625;28;20041;-64
2022/11/18 02:31:46;;;;;;;18.83;10.73;;;5.80;99.90;;;;;;5020500;28;20045;-64
2022/11/18 02:34:35;;;;;;;14.07;8.82;;;5.80;99.90;;;;;;5054262;28;20348;-65
2022/11/18 02:37:09;;;;;;;13.52;7.80;;;5.70;99.90;;;;;;5005316;28;20044;-64
2022/11/18 02:39:41;;;;;;;12.30;8.80;;;5.80;99.90;;;;;;5036930;28;20051;-63
2022/11/18 02:42:10;;;;;;;17.65;12.65;;;5.60;99.90;;;;;;5037049;28;20040;-65
2022/11/18 02:44:42;;;;;;;17.67;9.23;;;5.90;99.90;;;;;;5051215;28;20084;-64
2022/11/18 02:47:12;;;;;;;15.15;10.73;;;5.60;99.90;;;;;;5053441;28;20538;-64
2022/11/18 02:49:45;;;;;;;11.23;7.13;;;5.90;99.90;;;;;;5036432;28;20045;-65
2022/11/18 02:52:14;;;;;;;11.65;7.85;;;5.90;99.90;;;;;;5035094;28;20494;-64
2022/11/18 02:54:43;;;;;;;15.45;11.52;;;5.70;99.90;;;;;;5018544;28;20059;-64
2022/11/18 02:57:09;;;;;;;11.07;7.38;;;5.70;99.90;;;;;;5053813;28;20080;-64
2022/11/18 02:59:34;;;;;;;16.77;11.77;;;5.80;99.90;;;;;;5035338;28;20518;-64
2022/11/18 03:02:00;;;;;;;9.50;6.63;;;5.60;99.90;;;;;;5040593;28;20040;-64
2022/11/18 03:04:26;;;;;;;17.15;11.57;;;5.90;99.90;;;;;;5040118;28;20055;-62
2022/11/18 03:07:21;;;;;;;12.73;8.93;;;5.70;99.90;;;;;;5056411;28;20127;-64
2022/11/18 03:09:50;;;;;;;13.43;9.23;;;5.50;99.90;;;;;;5032612;28;20140;-64
2022/11/18 03:12:21;;;;;;;10.48;7.45;;;5.50;99.90;;;;;;5040662;28;20109;-65
2022/11/18 03:14:54;;;;;;;17.23;10.50;;;5.90;99.90;;;;;;5020462;28;20422;-63
2022/11/18 03:17:39;;;;;;;14.40;9.55;;;5.70;99.90;;;;;;5057189;28;20268;-64
2022/11/18 03:20:21;;;;;;;12.02;8.75;;;5.70;99.90;;;;;;5057405;28;20491;-64
2022/11/18 03:23:06;;;;;;;17.50;11.02;;;5.90;99.90;;;;;;5055619;28;20173;-64
2022/11/18 03:25:41;;;;;;;8.25;5.57;;;5.60;99.90;;;;;;5056423;28;20192;-65
2022/11/18 03:28:25;;;;;;;11.52;7.90;;;5.80;99.90;;;;;;5058169;28;20097;-64
2022/11/18 03:31:01;;;;;;;10.55;7.32;;;5.90;99.90;;;;;;5035530;28;20196;-65
2022/11/18 03:33:33;;;;;;;12.07;7.03;;;5.50;99.90;;;;;;5057903;28;20044;-63
2022/11/18 03:36:03;;;;;;;12.10;6.85;;;5.70;99.90;;;;;;5038290;28;20157;-64
2022/11/18 03:38:32;;;;;;;7.53;4.35;;;5.80;99.90;;;;;;5055787;28;20528;-63
2022/11/18 03:41:03;;;;;;;9.60;6.55;;;5.80;99.90;;;;;;5056259;28;20041;-64
2022/11/18 03:43:33;;;;;;;11.13;5.57;;;5.70;99.90;;;;;;5055981;28;20040;-64
2022/11/18 03:46:07;;;;;;;13.20;9.07;;;5.50;99.90;;;;;;5056358;28;20503;-64
2022/11/18 03:48:55;;;;;;;12.98;4.82;;;5.70;99.90;;;;;;5054153;28;20505;-64
2022/11/18 03:51:26;;;;;;;12.07;6.43;;;5.60;99.90;;;;;;5039216;28;20539;-65
2022/11/18 03:53:59;;;;;;;11.63;6.63;;;5.70;99.90;;;;;;5055834;28;20049;-64
2022/11/18 03:56:34;;;;;;;10.02;6.22;;;5.60;99.90;;;;;;5039544;28;20140;-63
2022/11/18 03:59:19;;;;;;;13.27;7.63;;;5.70;99.90;;;;;;5039175;28;20521;-64
2022/11/18 04:01:50;;;;;;;9.38;5.70;;;5.70;99.90;;;;;;5055876;28;20140;-64
2022/11/18 04:04:16;;;;;;;8.98;6.25;;;5.60;99.90;;;;;;5055192;28;20555;-63
2022/11/18 04:06:58;;;;;;;14.02;10.60;;;5.80;99.90;;;;;;5038961;28;20471;-64
2022/11/18 04:09:34;;;;;;;14.70;8.07;;;5.80;99.90;;;;;;5055516;28;20469;-63
2022/11/18 04:12:10;;;;;;;10.50;5.03;;;5.60;99.90;;;;;;5038497;28;20079;-64
2022/11/18 04:14:38;;;;;;;9.52;5.07;;;5.80;99.90;;;;;;5038497;28;20052;-63
2022/11/18 04:17:25;;;;;;;5.50;3.70;;;5.70;99.90;;;;;;5055603;28;20216;-64
2022/11/18 04:19:51;;;;;;;14.30;8.25;;;5.70;99.90;;;;;;5054980;28;20067;-64
2022/11/18 04:22:18;;;;;;;11.18;5.15;;;5.80;99.90;;;;;;5056741;28;20127;-63
2022/11/18 04:24:43;;;;;;;9.45;5.78;;;5.90;99.90;;;;;;5037228;28;20037;-64
2022/11/18 04:27:10;;;;;;;11.30;6.95;;;5.90;99.90;;;;;;5038893;28;20114;-64
2022/11/18 04:29:35;;;;;;;7.05;4.30;;;5.80;99.90;;;;;;5022850;28;20418;-64
2022/11/18 04:32:02;;;;;;;10.52;7.88;;;5.70;99.90;;;;;;5037255;28;20037;-64
2022/11/18 04:34:28;;;;;;;10.20;5.07;;;5.80;99.90;;;;;;5054192;28;20445;-64
2022/11/18 04:36:54;;;;;;;17.17;9.63;;;5.90;99.90;;;;;;5056214;28;20052;-64
2022/11/18 04:39:19;;;;;;;9.88;7.32;;;5.80;99.90;;;;;;5055631;28;20041;-64
2022/11/18 04:41:54;;;;;;;12.65;8.05;;;5.70;99.90;;;;;;5055493;28;20035;-63
2022/11/18 04:44:21;;;;;;;10.68;7.95;;;5.70;99.90;;;;;;5056089;28;20223;-64
2022/11/18 04:46:47;;;;;;;11.43;7.53;;;5.90;99.90;;;;;;5055446;28;20118;-64
2022/11/18 04:49:14;;;;;;;10.32;7.25;;;5.90;99.90;;;;;;5054891;28;20453;-64
2022/11/18 04:51:43;;;;;;;6.97;4.80;;;5.90;99.90;;;;;;5052673;28;20170;-64
2022/11/18 04:54:10;;;;;;;6.70;4.13;;;5.70;99.90;;;;;;5056553;28;20040;-63
2022/11/18 04:56:37;;;;;;;10.75;6.85;;;5.60;99.90;;;;;;5032512;28;20616;-64
2022/11/18 04:59:04;;;;;;;10.60;5.68;;;5.60;99.90;;;;;;5034269;28;20041;-63
2022/11/18 05:01:30;;;;;;;15.10;9.18;;;5.70;99.90;;;;;;5036122;28;20037;-65
2022/11/18 05:03:58;;;;;;;13.25;8.15;;;5.60;99.90;;;;;;5032668;28;20483;-64
2022/11/18 05:06:24;;;;;;;9.18;6.13;;;5.80;99.90;;;;;;5032381;28;20599;-63
2022/11/18 05:08:49;;;;;;;10.50;6.60;;;5.60;99.90;;;;;;5033925;28;20045;-63
2022/11/18 05:13:59;;;;;;;9.63;5.82;;;5.70;99.90;;;;;;5020447;28;20063;-64
2022/11/18 05:16:25;;;;;;;15.98;10.57;;;5.80;99.90;;;;;;5017821;28;20045;-65
2022/11/18 05:18:51;;;;;;;15.25;10.02;;;5.60;99.90;;;;;;5034110;28;20037;-64
2022/11/18 05:21:16;;;;;;;14.90;11.00;;;5.80;99.90;;;;;;5035000;28;20048;-64
2022/11/18 05:23:42;;;;;;;12.07;7.57;;;5.60;99.90;;;;;;5032812;28;20430;-64
2022/11/18 05:26:10;;;;;;;9.82;5.70;;;5.80;99.90;;;;;;5034275;28;20367;-64
2022/11/18 05:28:36;;;;;;;11.98;8.10;;;5.70;99.90;;;;;;5033557;28;20033;-63
2022/11/18 05:31:09;;;;;;;9.73;4.38;;;5.50;99.90;;;;;;5036030;28;20037;-64
2022/11/18 05:33:35;;;;;;;9.75;6.30;;;5.50;99.90;;;;;;5033023;28;20080;-63
2022/11/18 05:36:06;;;;;;;17.15;8.45;;;5.60;99.90;;;;;;5034435;28;20119;-64
2022/11/18 05:38:32;;;;;;;15.02;9.18;;;5.70;99.90;;;;;;5032843;28;20467;-64
2022/11/18 05:40:58;;;;;;;13.90;8.60;;;5.50;99.90;;;;;;5033017;28;20060;-64
2022/11/18 05:43:23;;;;;;;14.77;10.00;;;5.60;99.90;;;;;;5033067;28;20036;-64
2022/11/18 05:45:50;;;;;;;12.43;7.60;;;5.40;99.90;;;;;;5033404;28;20037;-64
2022/11/18 05:48:17;;;;;;;11.75;7.43;;;5.40;99.90;;;;;;5033816;28;20057;-63
2022/11/18 05:50:46;;;;;;;16.17;9.30;;;5.30;99.90;;;;;;5031202;28;20040;-64
2022/11/18 05:53:11;;;;;;;13.25;8.00;;;5.60;99.90;;;;;;5033409;28;20129;-63
2022/11/18 05:56:09;;;;;;;12.55;6.88;;;5.40;99.90;;;;;;5032254;28;20949;-64
2022/11/18 05:58:35;;;;;;;12.48;6.45;;;5.30;99.90;;;;;;5013099;28;20055;-64
2022/11/18 06:01:04;;;;;;;11.38;6.10;;;5.50;99.90;;;;;;5054697;28;20036;-63
2022/11/18 06:03:33;;;;;;;20.60;12.13;;;5.40;99.90;;;;;;5037146;28;20063;-62
2022/11/18 06:06:01;;;;;;;21.13;10.82;;;5.40;99.90;;;;;;5055556;28;20048;-62
2022/11/18 06:08:32;;;;;;;14.60;8.68;;;5.30;99.90;;;;;;5038141;28;20078;-63
2022/11/18 06:10:58;;;;;;;22.05;12.60;;;5.20;99.90;;;;;;5053664;28;20044;-63
2022/11/18 06:13:49;;;;;;;23.08;11.65;;;5.60;99.90;;;;;;5054865;28;20044;-63
2022/11/18 06:16:17;;;;;;;22.60;12.77;;;5.40;99.90;;;;;;5055959;28;20063;-63
2022/11/18 06:18:43;;;;;;;18.02;10.05;;;5.10;99.90;;;;;;5021864;28;20189;-63
2022/11/18 06:21:09;;;;;;;19.50;9.75;;;5.40;99.90;;;;;;5054892;28;20048;-63
2022/11/18 06:23:37;;;;;;;19.38;9.48;;;5.40;99.90;;;;;;5037047;28;20047;-62
2022/11/18 06:26:02;;;;;;;13.98;6.93;;;5.50;99.90;;;;;;5034344;28;20180;-63
2022/11/18 06:28:29;;;;;;;17.02;8.07;;;5.30;99.90;;;;;;5036458;28;20052;-64
2022/11/18 06:30:54;;;;;;;8.32;4.50;;;5.40;99.90;;;;;;5037446;28;20040;-62
2022/11/18 06:33:20;;;;;;;8.98;3.80;;;5.30;99.90;;;;;;5038515;28;20063;-61
2022/11/18 06:35:46;;;;;;;16.10;9.18;;;5.30;99.90;;;;;;5059130;28;20040;-63
2022/11/18 06:38:11;;;;;;;13.40;7.60;;;5.50;99.90;;;;;;5040884;28;20040;-63
2022/11/18 06:40:37;;;;;;;17.60;8.10;;;5.50;99.90;;;;;;5057986;28;20378;-64
2022/11/18 06:48:45;;;;;;;17.45;8.10;;;5.40;99.90;;;;;;5041265;28;20051;-62
2022/11/18 06:51:11;;;;;;;13.48;7.13;;;5.40;99.90;;;;;;5059637;28;20028;-63
2022/11/18 06:53:36;;;;;;;21.85;12.68;;;5.20;99.90;;;;;;5058974;28;20044;-63
2022/11/18 06:56:03;;;;;;;20.23;11.18;;;4.90;99.90;;;;;;5040908;28;20074;-63
2022/11/18 06:58:29;;;;;;;30.58;14.57;;;5.00;99.90;;;;;;5056847;28;20043;-63
2022/11/18 07:00:54;;;;;;;16.48;10.32;;;5.00;99.90;;;;;;5058299;28;20762;-63
2022/11/18 07:03:20;;;;;;;13.45;8.25;;;5.00;99.90;;;;;;5058943;28;20203;-63
2022/11/18 07:05:46;;;;;;;21.75;10.98;;;5.30;99.90;;;;;;5059330;28;20040;-62
2022/11/18 07:08:11;;;;;;;22.65;12.43;;;5.30;99.90;;;;;;5039886;28;20344;-63
2022/11/18 07:10:37;;;;;;;15.55;8.20;;;5.40;99.90;;;;;;5058025;28;20052;-63
2022/11/18 07:13:03;;;;;;;20.05;10.32;;;5.00;99.90;;;;;;5056983;28;20040;-62
2022/11/18 07:15:28;;;;;;;21.35;13.23;;;4.90;99.90;;;;;;5057759;28;20043;-64
2022/11/18 07:17:54;;;;;;;22.13;13.10;;;5.00;99.90;;;;;;5059542;28;20045;-63
2022/11/18 07:20:19;;;;;;;20.90;9.70;;;5.20;99.90;;;;;;5040576;28;20449;-63
2022/11/18 07:22:45;;;;;;;26.30;14.88;;;5.20;99.90;;;;;;5038253;28;20036;-62
2022/11/18 07:25:11;;;;;;;16.17;9.80;;;4.80;99.90;;;;;;5058369;28;20456;-62
2022/11/18 07:27:36;;;;;;;15.38;9.35;;;5.00;99.90;;;;;;5057445;28;20052;-62
2022/11/18 07:30:03;;;;;;;18.38;9.20;;;4.70;99.90;;;;;;5035977;28;20470;-64
2022/11/18 07:32:28;;;;;;;18.33;10.95;;;4.80;99.90;;;;;;5058402;28;20118;-63
2022/11/18 07:34:54;;;;;;;17.92;10.25;;;4.70;99.90;;;;;;5056877;28;20057;-66
2022/11/18 07:37:19;;;;;;;18.38;10.40;;;5.10;99.90;;;;;;5056397;28;20471;-65
2022/11/18 07:39:45;;;;;;;21.77;14.18;;;4.80;99.90;;;;;;5037693;28;20589;-65
2022/11/18 07:42:11;;;;;;;20.83;10.73;;;4.70;99.90;;;;;;5056807;28;20569;-64
2022/11/18 07:44:36;;;;;;;25.75;15.50;;;4.80;99.90;;;;;;5035903;28;20044;-65
2022/11/18 07:47:02;;;;;;;26.55;16.08;;;4.80;99.90;;;;;;5055364;28;20124;-65
2022/11/18 07:49:28;;;;;;;14.73;9.48;;;5.10;99.90;;;;;;5055452;28;20540;-65
2022/11/18 07:51:53;;;;;;;25.10;14.95;;;4.70;99.90;;;;;;5005204;28;20400;-64
2022/11/18 07:54:19;;;;;;;27.63;16.00;;;4.90;99.90;;;;;;5036816;28;20059;-65
2022/11/18 07:56:45;;;;;;;24.80;14.98;;;4.80;99.90;;;;;;5005460;28;20044;-65
2022/11/18 07:59:11;;;;;;;19.33;9.30;;;4.60;99.90;;;;;;5034848;28;20127;-65
2022/11/18 08:01:37;;;;;;;21.73;12.88;;;4.90;99.90;;;;;;5051973;28;20280;-66
2022/11/18 08:04:11;;;;;;;20.25;11.27;;;5.00;99.90;;;;;;5001776;28;20048;-64
2022/11/18 08:06:37;;;;;;;21.02;13.77;;;4.60;99.90;;;;;;5036662;28;20686;-65
2022/11/18 08:09:04;;;;;;;21.55;11.88;;;4.50;99.90;;;;;;5035786;28;20045;-65
2022/11/18 08:11:30;;;;;;;23.02;13.43;;;5.00;99.90;;;;;;5037034;28;20595;-63
2022/11/18 08:13:56;;;;;;;29.23;16.77;;;5.00;99.90;;;;;;5056030;28;20112;-63
2022/11/18 08:16:23;;;;;;;35.78;21.17;;;4.40;99.90;;;;;;5034815;28;20051;-64
2022/11/18 08:18:49;;;;;;;21.90;12.63;;;5.10;99.90;;;;;;5036963;28;20095;-65
2022/11/18 08:21:17;;;;;;;31.85;20.35;;;5.00;99.90;;;;;;5056117;28;20628;-64
2022/11/18 08:23:42;;;;;;;38.90;21.42;;;4.60;99.90;;;;;;5055213;28;20040;-64
2022/11/18 08:26:12;;;;;;;27.95;16.35;;;4.80;99.90;;;;;;5054830;28;20041;-65
2022/11/18 08:28:42;;;;;;;27.85;16.20;;;5.10;99.90;;;;;;5038193;28;20138;-65
2022/11/18 08:31:13;;;;;;;28.42;16.75;;;4.80;99.90;;;;;;5020351;28;20032;-65
2022/11/18 08:33:39;;;;;;;33.80;17.90;;;4.40;99.90;;;;;;5050923;28;20113;-65
2022/11/18 08:36:09;;;;;;;35.05;21.23;;;5.00;99.90;;;;;;5019146;28;20480;-65
2022/11/18 08:38:35;;;;;;;39.55;22.17;;;4.40;99.90;;;;;;5039603;28;20036;-65
2022/11/18 08:41:02;;;;;;;26.42;16.40;;;4.60;99.90;;;;;;5036872;28;20093;-65
2022/11/18 08:43:27;;;;;;;28.98;17.40;;;4.40;99.90;;;;;;5019690;28;20040;-65
2022/11/18 08:45:53;;;;;;;22.05;13.40;;;4.30;99.90;;;;;;5055509;28;20391;-64
2022/11/18 08:48:19;;;;;;;20.42;12.40;;;5.00;99.90;;;;;;5051702;28;20052;-65
2022/11/18 08:50:44;;;;;;;27.85;15.57;;;4.40;99.90;;;;;;5054704;28;20090;-64
2022/11/18 08:53:10;;;;;;;26.38;14.50;;;4.90;99.90;;;;;;5036810;28;20056;-65
2022/11/18 08:55:36;;;;;;;22.88;14.38;;;4.20;99.90;;;;;;5034432;28;20036;-65
2022/11/18 08:58:01;;;;;;;30.27;16.42;;;4.30;99.90;;;;;;5035460;28;20055;-64
2022/11/18 09:00:27;;;;;;;29.92;16.38;;;4.80;99.90;;;;;;5036264;28;20051;-65
2022/11/18 09:02:52;;;;;;;25.48;14.38;;;4.70;99.90;;;;;;5052227;28;20040;-65
2022/11/18 09:05:18;;;;;;;34.00;18.20;;;4.90;99.90;;;;;;5052898;28;20071;-65
2022/11/18 09:07:44;;;;;;;24.73;14.25;;;4.70;99.90;;;;;;5037182;28;20056;-64
2022/11/18 09:10:10;;;;;;;31.38;17.98;;;4.20;99.90;;;;;;5018512;28;20040;-65
2022/11/18 09:12:35;;;;;;;21.10;11.52;;;4.20;99.90;;;;;;5035363;28;20123;-66
2022/11/18 09:15:01;;;;;;;40.65;22.35;;;4.40;99.90;;;;;;5053883;28;20500;-65
2022/11/18 09:17:27;;;;;;;34.33;19.20;;;4.30;99.90;;;;;;5020222;28;20840;-65
2022/11/18 09:19:52;;;;;;;18.17;9.00;;;4.00;99.90;;;;;;5032411;28;20202;-65
2022/11/18 09:22:18;;;;;;;23.67;13.52;;;4.50;99.90;;;;;;5038214;28;20048;-63
2022/11/18 09:24:44;;;;;;;43.22;22.30;;;4.00;99.90;;;;;;5020149;28;20143;-63
2022/11/18 09:27:09;;;;;;;27.67;14.02;;;4.00;99.90;;;;;;5053797;28;20045;-62
2022/11/18 09:29:35;;;;;;;44.55;23.33;;;4.30;99.90;;;;;;5037341;28;20504;-63
2022/11/18 09:32:01;;;;;;;31.00;17.55;;;4.20;99.90;;;;;;5036797;28;20052;-64
2022/11/18 09:34:27;;;;;;;32.45;17.40;;;4.20;99.90;;;;;;5053233;28;20040;-63
2022/11/18 09:36:55;;;;;;;40.58;21.27;;;4.60;99.90;;;;;;5051692;28;20079;-63
2022/11/18 09:39:22;;;;;;;37.97;21.30;;;4.20;99.90;;;;;;5055201;28;20068;-63
2022/11/18 09:42:14;;;;;;;41.10;23.70;;;4.30;99.90;;;;;;5035863;28;20155;-63
2022/11/18 09:44:58;;;;;;;37.40;21.48;;;4.70;99.90;;;;;;5054334;28;20071;-64
2022/11/18 09:47:26;;;;;;;23.42;14.73;;;4.70;99.90;;;;;;5054918;28;20044;-64
2022/11/18 09:49:55;;;;;;;32.63;18.35;;;4.60;99.90;;;;;;5054011;28;20048;-65
2022/11/18 09:52:28;;;;;;;42.60;25.08;;;4.00;99.90;;;;;;5034077;28;20215;-64
2022/11/18 09:54:54;;;;;;;41.90;25.17;;;4.40;99.90;;;;;;5053332;28;20062;-66
2022/11/18 09:57:24;;;;;;;40.38;24.30;;;4.50;99.90;;;;;;5008758;28;1249037;-65
2022/11/18 09:59:50;;;;;;;33.53;21.23;;;4.30;99.90;;;;;;5054291;28;20036;-64
2022/11/18 10:02:44;;;;;;;40.20;23.15;;;4.60;99.90;;;;;;5037615;28;20047;-64
2022/11/18 10:05:20;;;;;;;21.80;13.07;;;4.00;99.90;;;;;;5054354;28;20450;-65
2022/11/18 10:08:03;;;;;;;41.55;25.27;;;4.60;99.90;;;;;;5033379;28;20102;-65
2022/11/18 10:10:41;;;;;;;42.97;27.25;;;4.60;99.90;;;;;;5019799;28;20095;-65
2022/11/18 10:13:40;;;;;;;42.78;28.33;;;4.00;99.90;;;;;;5036563;28;20052;-65
2022/11/18 10:16:15;;;;;;;29.70;17.65;;;4.40;99.90;;;;;;5027848;28;20226;-65
2022/11/18 10:18:53;;;;;;;42.95;26.30;;;4.30;99.90;;;;;;5052472;28;20037;-65
2022/11/18 10:21:40;;;;;;;43.22;26.75;;;4.50;99.90;;;;;;5052451;28;20044;-65
2022/11/18 10:24:36;;;;;;;41.88;26.42;;;3.90;99.90;;;;;;5053539;28;20350;-65
2022/11/18 10:27:09;;;;;;;49.92;30.38;;;4.00;99.90;;;;;;5052967;28;20142;-65
2022/11/18 10:29:34;;;;;;;45.13;29.85;;;4.60;99.90;;;;;;5034650;28;20071;-64
2022/11/18 10:32:15;;;;;;;41.85;27.08;;;4.30;99.90;;;;;;5055430;28;20147;-65
2022/11/18 10:34:57;;;;;;;41.30;27.88;;;4.50;99.90;;;;;;5054844;28;20394;-65
2022/11/18 10:37:25;;;;;;;36.22;25.70;;;4.10;99.90;;;;;;5054205;28;20051;-66
2022/11/18 10:39:57;;;;;;;36.00;23.05;;;4.50;99.90;;;;;;5031621;28;20120;-65
2022/11/18 10:42:25;;;;;;;30.38;20.42;;;4.00;99.90;;;;;;5053386;28;20376;-65
2022/11/18 10:44:51;;;;;;;39.85;26.83;;;4.30;99.90;;;;;;5034004;28;20036;-65
2022/11/18 10:47:23;;;;;;;36.15;22.77;;;3.90;99.90;;;;;;5054715;28;20059;-64
2022/11/18 10:49:50;;;;;;;33.50;22.23;;;4.00;99.90;;;;;;5036548;28;20611;-63
2022/11/18 10:52:16;;;;;;;42.97;28.33;;;4.20;99.90;;;;;;5052657;28;20048;-63
2022/11/18 10:55:03;;;;;;;26.02;16.38;;;4.00;99.90;;;;;;5033610;28;20052;-62
2022/11/18 10:57:38;;;;;;;34.35;21.27;;;4.00;99.90;;;;;;5054283;28;20044;-63
2022/11/18 11:00:05;;;;;;;29.42;18.52;;;3.80;99.90;;;;;;5054437;28;20549;-64
2022/11/18 11:02:34;;;;;;;36.72;22.48;;;4.10;99.90;;;;;;5035160;28;20066;-64
2022/11/18 11:05:23;;;;;;;41.20;27.40;;;3.80;99.90;;;;;;5035647;28;20113;-65
2022/11/18 11:08:18;;;;;;;43.20;27.52;;;4.10;99.90;;;;;;5051208;28;20111;-64
2022/11/18 11:10:55;;;;;;;34.15;20.70;;;3.80;99.90;;;;;;5033065;28;20554;-65
2022/11/18 11:13:22;;;;;;;31.85;19.20;;;4.20;99.90;;;;;;5035123;28;20044;-65
2022/11/18 11:15:53;;;;;;;28.40;18.60;;;4.00;99.90;;;;;;5034127;28;20037;-65
2022/11/18 11:18:41;;;;;;;47.20;30.23;;;4.20;99.90;;;;;;5035400;28;20048;-65
2022/11/18 11:21:24;;;;;;;49.60;32.78;;;3.70;99.90;;;;;;5038460;28;20044;-65
2022/11/18 11:23:50;;;;;;;45.58;29.58;;;3.80;99.90;;;;;;5037641;28;20036;-65
2022/11/18 11:26:45;;;;;;;44.22;29.98;;;3.80;99.90;;;;;;5036893;28;20067;-65
2022/11/18 11:29:35;;;;;;;48.75;30.73;;;3.70;99.90;;;;;;5046894;28;20136;-64
2022/11/18 11:32:19;;;;;;;38.53;27.02;;;3.90;99.90;;;;;;5021162;28;20044;-65
2022/11/18 11:34:50;;;;;;;46.88;31.55;;;3.80;99.90;;;;;;5038227;28;20044;-66
2022/11/18 11:37:53;;;;;;;46.08;31.58;;;4.10;99.90;;;;;;5038464;28;20048;-65
2022/11/18 11:40:33;;;;;;;45.53;29.40;;;3.70;99.90;;;;;;5025325;28;20056;-63
2022/11/18 11:43:33;;;;;;;45.95;30.20;;;3.90;99.90;;;;;;5053733;28;20513;-65
2022/11/18 11:47:45;;;;;;;43.72;27.77;;;4.10;99.90;;;;;;5054857;28;20049;-65
2022/11/18 11:49:52;;;;;;;37.90;24.60;;;3.80;99.90;;;;;;4962399;28;20549;-65
2022/11/18 11:52:32;;;;;;;43.13;28.00;;;3.60;99.90;;;;;;5055462;28;20302;-65
2022/11/18 11:55:15;;;;;;;23.45;14.48;;;4.00;99.90;;;;;;5038082;28;20226;-64
2022/11/18 11:58:27;;;;;;;36.85;22.98;;;4.00;99.90;;;;;;5036350;28;20581;-64
2022/11/18 12:01:31;;;;;;;34.35;23.95;;;3.50;99.90;;;;;;4973932;28;20168;-64
2022/11/18 12:04:38;;;;;;;33.45;20.85;;;4.00;99.90;;;;;;4974079;28;20084;-64
2022/11/18 12:07:06;;;;;;;39.65;24.90;;;3.70;99.90;;;;;;4948124;28;20136;-65
2022/11/18 12:09:32;;;;;;;23.50;15.50;;;3.60;99.90;;;;;;5035227;28;20469;-64
2022/11/18 12:11:57;;;;;;;29.55;21.65;;;3.50;99.90;;;;;;5055774;28;20091;-66
2022/11/18 12:14:28;;;;;;;35.47;23.20;;;3.70;99.90;;;;;;5054467;28;20082;-65
2022/11/18 12:17:06;;;;;;;34.55;21.55;;;3.90;99.90;;;;;;5053745;28;20052;-64
2022/11/18 12:19:38;;;;;;;44.58;28.30;;;3.70;99.90;;;;;;5038099;28;20032;-64
2022/11/18 12:22:04;;;;;;;40.92;26.85;;;3.80;99.90;;;;;;5037964;28;20585;-64
2022/11/18 12:24:35;;;;;;;35.28;22.50;;;3.60;99.90;;;;;;5035670;28;20418;-64
2022/11/18 12:27:13;;;;;;;35.88;22.55;;;3.80;99.90;;;;;;5038077;28;20321;-65
2022/11/18 12:29:48;;;;;;;37.80;23.15;;;3.90;99.90;;;;;;5036420;28;20032;-65
2022/11/18 12:32:41;;;;;;;31.00;19.90;;;3.40;99.90;;;;;;5052319;28;20033;-64
2022/11/18 12:35:12;;;;;;;19.05;13.05;;;3.80;99.90;;;;;;5037549;28;20404;-64
2022/11/18 12:37:50;;;;;;;30.35;19.10;;;3.50;99.90;;;;;;5056796;28;20047;-64
2022/11/18 12:40:39;;;;;;;53.85;34.45;;;3.80;99.90;;;;;;5053246;28;20090;-64
2022/11/18 12:46:36;;;;;;;50.90;33.08;;;3.60;99.90;;;;;;5053268;28;20299;-64
2022/11/18 12:49:20;;;;;;;36.92;24.35;;;3.90;99.90;;;;;;5032725;28;20048;-64
2022/11/18 12:51:47;;;;;;;29.10;18.38;;;3.80;99.90;;;;;;5058364;28;20823;-63
2022/11/18 12:54:33;;;;;;;44.20;30.25;;;3.90;99.90;;;;;;5040361;28;20044;-65
2022/11/18 12:57:02;;;;;;;47.25;30.98;;;3.50;99.90;;;;;;5038502;28;20517;-64
2022/11/18 12:59:33;;;;;;;39.85;28.50;;;3.40;99.90;;;;;;5056679;28;20119;-64
2022/11/18 13:02:22;;;;;;;47.53;33.38;;;3.50;99.90;;;;;;5053879;28;20401;-64
2022/11/18 13:05:19;;;;;;;45.25;32.25;;;3.80;99.90;;;;;;5037955;28;20079;-63
2022/11/18 13:10:39;;;;;;;34.95;22.83;;;3.80;99.90;;;;;;5053549;28;20569;-64
2022/11/18 13:13:12;;;;;;;44.00;32.22;;;3.80;99.90;;;;;;5038766;28;20047;-65
2022/11/18 13:18:26;;;;;;;40.97;29.55;;;3.90;99.90;;;;;;5031753;28;20052;-64
2022/11/18 13:20:56;;;;;;;46.22;33.20;;;3.80;99.90;;;;;;5054680;28;20043;-64
2022/11/18 13:26:31;;;;;;;45.55;30.83;;;3.60;99.90;;;;;;5035132;28;20209;-63
2022/11/18 13:29:34;;;;;;;30.92;22.42;;;3.80;99.90;;;;;;5055092;28;20120;-64